sensor_id;sensor_type;location;lat;lon;timestamp;P1;P2;P0
55043;PMS5003;54902;50.420;18.854;2023-03-04T00:00:02;30;28;15
55043;PMS5003;54902;50.420;18.854;2023-03-04T00:00:34;30;28;15
55043;PMS5003;54902;50.420;18.854;2023-03-04T00:01:05;30;28;15
55043;PMS5003;54902;50.420;18.854;2023-03-04T00:01:36;30;28;15
55043;PMS5003;54902;50.420;18.854;2023-03-04T00:02:07;30;28;15
55043;PMS5003;54902;50.420;18.854;2023-03-04T00:02:38;30;28;15
55043;PMS5003;54902;50.420;18.854;2023-03-04T00:03:09;30;28;15
55043;PMS5003;54902;50.420;18.854;2023-03-04T00:03:40;30;28;15
55043;PMS5003;54902;50.420;18.854;2023-03-04T00:04:12;30;28;15
55043;PMS5003;54902;50.420;18.854;2023-03-04T00:04:42;30;28;15
55043;PMS5003;54902;50.420;18.854;2023-03-04T00:05:13;30;28;15
55043;PMS5003;54902;50.420;18.854;2023-03-04T00:05:45;30;28;15
55043;PMS5003;54902;50.420;18.854;2023-03-04T00:06:16;28;26;14
55043;PMS5003;54902;50.420;18.854;2023-03-04T00:06:47;26;24;13
55043;PMS5003;54902;50.420;18.854;2023-03-04T00:07:18;26;24;13
55043;PMS5003;54902;50.420;18.854;2023-03-04T00:07:49;26;24;13
55043;PMS5003;54902;50.420;18.854;2023-03-04T00:08:20;26;24;13
55043;PMS5003;54902;50.420;18.854;2023-03-04T00:08:51;26;24;13
55043;PMS5003;54902;50.420;18.854;2023-03-04T00:09:22;26;24;13
55043;PMS5003;54902;50.420;18.854;2023-03-04T00:09:53;26;24;13
55043;PMS5003;54902;50.420;18.854;2023-03-04T00:10:24;26;24;13
55043;PMS5003;54902;50.420;18.854;2023-03-04T00:10:54;26;24;13
55043;PMS5003;54902;50.420;18.854;2023-03-04T00:11:26;26;24;13
55043;PMS5003;54902;50.420;18.854;2023-03-04T00:11:57;39;36;18
55043;PMS5003;54902;50.420;18.854;2023-03-04T00:12:27;39;36;18
55043;PMS5003;54902;50.420;18.854;2023-03-04T00:12:58;39;36;18
55043;PMS5003;54902;50.420;18.854;2023-03-04T00:13:29;39;36;18
55043;PMS5003;54902;50.420;18.854;2023-03-04T00:14:00;39;36;18
55043;PMS5003;54902;50.420;18.854;2023-03-04T00:14:31;39;36;18
55043;PMS5003;54902;50.420;18.854;2023-03-04T00:15:02;31;29;14
55043;PMS5003;54902;50.420;18.854;2023-03-04T00:15:33;31;29;14
55043;PMS5003;54902;50.420;18.854;2023-03-04T00:16:04;31;29;14
55043;PMS5003;54902;50.420;18.854;2023-03-04T00:16:36;31;29;14
55043;PMS5003;54902;50.420;18.854;2023-03-04T00:17:07;33;31;12
55043;PMS5003;54902;50.420;18.854;2023-03-04T00:17:38;33;31;12
55043;PMS5003;54902;50.420;18.854;2023-03-04T00:18:09;33;31;12
55043;PMS5003;54902;50.420;18.854;2023-03-04T00:18:40;33;31;12
55043;PMS5003;54902;50.420;18.854;2023-03-04T00:19:11;33;31;12
55043;PMS5003;54902;50.420;18.854;2023-03-04T00:19:41;33;31;12
55043;PMS5003;54902;50.420;18.854;2023-03-04T00:20:13;33;31;12
55043;PMS5003;54902;50.420;18.854;2023-03-04T00:20:44;33;31;12
55043;PMS5003;54902;50.420;18.854;2023-03-04T00:21:15;36;34;14
55043;PMS5003;54902;50.420;18.854;2023-03-04T00:21:46;36;34;14
55043;PMS5003;54902;50.420;18.854;2023-03-04T00:22:17;29;28;14
55043;PMS5003;54902;50.420;18.854;2023-03-04T00:22:48;29;28;14
55043;PMS5003;54902;50.420;18.854;2023-03-04T00:23:19;29;28;14
55043;PMS5003;54902;50.420;18.854;2023-03-04T00:23:50;29;28;14
55043;PMS5003;54902;50.420;18.854;2023-03-04T00:24:21;29;28;14
55043;PMS5003;54902;50.420;18.854;2023-03-04T00:24:54;29;28;14
55043;PMS5003;54902;50.420;18.854;2023-03-04T00:25:25;29;28;14
55043;PMS5003;54902;50.420;18.854;2023-03-04T00:25:55;29;28;14
55043;PMS5003;54902;50.420;18.854;2023-03-04T00:26:26;29;28;14
55043;PMS5003;54902;50.420;18.854;2023-03-04T00:26:57;29;28;14
55043;PMS5003;54902;50.420;18.854;2023-03-04T00:27:28;40;39;18
55043;PMS5003;54902;50.420;18.854;2023-03-04T00:27:59;40;39;18
55043;PMS5003;54902;50.420;18.854;2023-03-04T00:28:30;25;24;12
55043;PMS5003;54902;50.420;18.854;2023-03-04T00:29:01;25;24;12
55043;PMS5003;54902;50.420;18.854;2023-03-04T00:29:32;25;24;12
55043;PMS5003;54902;50.420;18.854;2023-03-04T00:30:04;25;24;12
55043;PMS5003;54902;50.420;18.854;2023-03-04T00:30:36;25;24;12
55043;PMS5003;54902;50.420;18.854;2023-03-04T00:31:07;25;24;12
55043;PMS5003;54902;50.420;18.854;2023-03-04T00:31:38;25;24;12
55043;PMS5003;54902;50.420;18.854;2023-03-04T00:32:09;25;24;12
55043;PMS5003;54902;50.420;18.854;2023-03-04T00:32:41;38;34;15
55043;PMS5003;54902;50.420;18.854;2023-03-04T00:33:12;38;34;15
55043;PMS5003;54902;50.420;18.854;2023-03-04T00:33:43;38;34;15
55043;PMS5003;54902;50.420;18.854;2023-03-04T00:34:14;38;34;15
55043;PMS5003;54902;50.420;18.854;2023-03-04T00:34:45;38;34;15
55043;PMS5003;54902;50.420;18.854;2023-03-04T00:35:16;38;34;15
55043;PMS5003;54902;50.420;18.854;2023-03-04T00:35:47;38;34;15
55043;PMS5003;54902;50.420;18.854;2023-03-04T00:36:18;38;34;15
55043;PMS5003;54902;50.420;18.854;2023-03-04T00:36:49;38;34;15
55043;PMS5003;54902;50.420;18.854;2023-03-04T00:37:20;38;34;15
55043;PMS5003;54902;50.420;18.854;2023-03-04T00:37:51;40;36;16
55043;PMS5003;54902;50.420;18.854;2023-03-04T00:38:22;40;36;16
55043;PMS5003;54902;50.420;18.854;2023-03-04T00:38:53;40;36;16
55043;PMS5003;54902;50.420;18.854;2023-03-04T00:39:24;40;36;16
55043;PMS5003;54902;50.420;18.854;2023-03-04T00:39:55;40;36;16
55043;PMS5003;54902;50.420;18.854;2023-03-04T00:40:25;40;36;16
55043;PMS5003;54902;50.420;18.854;2023-03-04T00:40:56;40;36;16
55043;PMS5003;54902;50.420;18.854;2023-03-04T00:41:27;40;36;16
55043;PMS5003;54902;50.420;18.854;2023-03-04T00:41:58;40;36;16
55043;PMS5003;54902;50.420;18.854;2023-03-04T00:42:29;40;36;16
55043;PMS5003;54902;50.420;18.854;2023-03-04T00:43:01;40;36;16
55043;PMS5003;54902;50.420;18.854;2023-03-04T00:43:32;40;36;16
55043;PMS5003;54902;50.420;18.854;2023-03-04T00:44:04;40;36;16
55043;PMS5003;54902;50.420;18.854;2023-03-04T00:44:35;40;36;16
55043;PMS5003;54902;50.420;18.854;2023-03-04T00:45:06;40;36;16
55043;PMS5003;54902;50.420;18.854;2023-03-04T00:45:38;40;36;16
55043;PMS5003;54902;50.420;18.854;2023-03-04T00:46:09;40;36;16
55043;PMS5003;54902;50.420;18.854;2023-03-04T00:46:40;36;31;13
55043;PMS5003;54902;50.420;18.854;2023-03-04T00:47:11;36;31;13
55043;PMS5003;54902;50.420;18.854;2023-03-04T00:47:42;36;31;13
55043;PMS5003;54902;50.420;18.854;2023-03-04T00:48:12;33;29;13
55043;PMS5003;54902;50.420;18.854;2023-03-04T00:48:45;33;29;13
55043;PMS5003;54902;50.420;18.854;2023-03-04T00:49:16;33;29;13
55043;PMS5003;54902;50.420;18.854;2023-03-04T00:49:47;33;29;13
55043;PMS5003;54902;50.420;18.854;2023-03-04T00:50:18;33;29;13
55043;PMS5003;54902;50.420;18.854;2023-03-04T00:50:49;33;29;13
55043;PMS5003;54902;50.420;18.854;2023-03-04T00:51:23;33;29;13
55043;PMS5003;54902;50.420;18.854;2023-03-04T00:51:54;33;29;13
55043;PMS5003;54902;50.420;18.854;2023-03-04T00:52:24;33;29;13
55043;PMS5003;54902;50.420;18.854;2023-03-04T00:52:55;33;29;13
55043;PMS5003;54902;50.420;18.854;2023-03-04T00:53:26;17;16;9
55043;PMS5003;54902;50.420;18.854;2023-03-04T00:53:57;17;16;9
55043;PMS5003;54902;50.420;18.854;2023-03-04T00:54:28;17;16;9
55043;PMS5003;54902;50.420;18.854;2023-03-04T00:54:59;17;16;9
55043;PMS5003;54902;50.420;18.854;2023-03-04T00:55:30;17;16;9
55043;PMS5003;54902;50.420;18.854;2023-03-04T00:56:01;17;16;9
55043;PMS5003;54902;50.420;18.854;2023-03-04T00:56:32;17;16;9
55043;PMS5003;54902;50.420;18.854;2023-03-04T00:57:03;17;16;9
55043;PMS5003;54902;50.420;18.854;2023-03-04T00:57:33;17;16;9
55043;PMS5003;54902;50.420;18.854;2023-03-04T00:58:04;17;16;9
55043;PMS5003;54902;50.420;18.854;2023-03-04T00:58:35;30;28;15
55043;PMS5003;54902;50.420;18.854;2023-03-04T00:59:06;30;28;15
55043;PMS5003;54902;50.420;18.854;2023-03-04T00:59:37;30;28;15
55043;PMS5003;54902;50.420;18.854;2023-03-04T01:00:10;30;28;15
55043;PMS5003;54902;50.420;18.854;2023-03-04T01:00:42;30;28;15
55043;PMS5003;54902;50.420;18.854;2023-03-04T01:01:13;30;28;15
55043;PMS5003;54902;50.420;18.854;2023-03-04T01:01:44;30;28;15
55043;PMS5003;54902;50.420;18.854;2023-03-04T01:02:15;30;28;15
55043;PMS5003;54902;50.420;18.854;2023-03-04T01:02:45;30;28;15
55043;PMS5003;54902;50.420;18.854;2023-03-04T01:03:16;30;28;15
55043;PMS5003;54902;50.420;18.854;2023-03-04T01:03:47;30;28;15
55043;PMS5003;54902;50.420;18.854;2023-03-04T01:04:19;30;28;15
55043;PMS5003;54902;50.420;18.854;2023-03-04T01:04:50;30;28;15
55043;PMS5003;54902;50.420;18.854;2023-03-04T01:05:21;30;28;15
55043;PMS5003;54902;50.420;18.854;2023-03-04T01:05:52;19;17;9
55043;PMS5003;54902;50.420;18.854;2023-03-04T01:06:23;19;17;9
55043;PMS5003;54902;50.420;18.854;2023-03-04T01:06:54;19;17;9
55043;PMS5003;54902;50.420;18.854;2023-03-04T01:07:24;19;17;9
55043;PMS5003;54902;50.420;18.854;2023-03-04T01:07:55;19;17;9
55043;PMS5003;54902;50.420;18.854;2023-03-04T01:08:26;19;17;9
55043;PMS5003;54902;50.420;18.854;2023-03-04T01:08:57;21;14;10
55043;PMS5003;54902;50.420;18.854;2023-03-04T01:09:28;21;14;10
55043;PMS5003;54902;50.420;18.854;2023-03-04T01:09:59;21;14;10
55043;PMS5003;54902;50.420;18.854;2023-03-04T01:10:30;21;14;10
55043;PMS5003;54902;50.420;18.854;2023-03-04T01:11:01;21;14;10
55043;PMS5003;54902;50.420;18.854;2023-03-04T01:11:32;21;14;10
55043;PMS5003;54902;50.420;18.854;2023-03-04T01:12:03;21;14;10
55043;PMS5003;54902;50.420;18.854;2023-03-04T01:12:34;21;14;10
55043;PMS5003;54902;50.420;18.854;2023-03-04T01:13:06;21;14;10
55043;PMS5003;54902;50.420;18.854;2023-03-04T01:13:37;21;14;10
55043;PMS5003;54902;50.420;18.854;2023-03-04T01:14:09;24;16;12
55043;PMS5003;54902;50.420;18.854;2023-03-04T01:14:40;24;16;12
55043;PMS5003;54902;50.420;18.854;2023-03-04T01:15:12;24;16;12
55043;PMS5003;54902;50.420;18.854;2023-03-04T01:15:44;24;16;12
55043;PMS5003;54902;50.420;18.854;2023-03-04T01:16:15;24;16;12
55043;PMS5003;54902;50.420;18.854;2023-03-04T01:16:47;24;16;12
55043;PMS5003;54902;50.420;18.854;2023-03-04T01:17:18;24;16;12
55043;PMS5003;54902;50.420;18.854;2023-03-04T01:17:49;24;16;12
55043;PMS5003;54902;50.420;18.854;2023-03-04T01:18:20;24;16;12
55043;PMS5003;54902;50.420;18.854;2023-03-04T01:18:51;24;16;12
55043;PMS5003;54902;50.420;18.854;2023-03-04T01:19:22;24;16;12
55043;PMS5003;54902;50.420;18.854;2023-03-04T01:19:53;13;12;8
55043;PMS5003;54902;50.420;18.854;2023-03-04T01:20:24;13;12;8
55043;PMS5003;54902;50.420;18.854;2023-03-04T01:20:55;13;12;8
55043;PMS5003;54902;50.420;18.854;2023-03-04T01:21:26;13;12;8
55043;PMS5003;54902;50.420;18.854;2023-03-04T01:21:57;13;12;8
55043;PMS5003;54902;50.420;18.854;2023-03-04T01:22:28;13;12;8
55043;PMS5003;54902;50.420;18.854;2023-03-04T01:22:59;13;12;8
55043;PMS5003;54902;50.420;18.854;2023-03-04T01:23:30;13;12;8
55043;PMS5003;54902;50.420;18.854;2023-03-04T01:24:01;13;12;8
55043;PMS5003;54902;50.420;18.854;2023-03-04T01:24:32;19;19;10
55043;PMS5003;54902;50.420;18.854;2023-03-04T01:25:03;19;19;10
55043;PMS5003;54902;50.420;18.854;2023-03-04T01:25:34;19;19;10
55043;PMS5003;54902;50.420;18.854;2023-03-04T01:26:05;19;19;10
55043;PMS5003;54902;50.420;18.854;2023-03-04T01:26:36;19;19;10
55043;PMS5003;54902;50.420;18.854;2023-03-04T01:27:07;19;19;10
55043;PMS5003;54902;50.420;18.854;2023-03-04T01:27:38;19;19;10
55043;PMS5003;54902;50.420;18.854;2023-03-04T01:28:09;19;19;10
55043;PMS5003;54902;50.420;18.854;2023-03-04T01:28:40;19;19;10
55043;PMS5003;54902;50.420;18.854;2023-03-04T01:29:11;18;18;9
55043;PMS5003;54902;50.420;18.854;2023-03-04T01:29:42;17;17;6
55043;PMS5003;54902;50.420;18.854;2023-03-04T01:30:13;17;17;6
55043;PMS5003;54902;50.420;18.854;2023-03-04T01:30:44;17;17;6
55043;PMS5003;54902;50.420;18.854;2023-03-04T01:31:15;17;17;6
55043;PMS5003;54902;50.420;18.854;2023-03-04T01:31:46;17;17;6
55043;PMS5003;54902;50.420;18.854;2023-03-04T01:32:17;17;17;6
55043;PMS5003;54902;50.420;18.854;2023-03-04T01:32:48;17;17;6
55043;PMS5003;54902;50.420;18.854;2023-03-04T01:33:20;17;17;6
55043;PMS5003;54902;50.420;18.854;2023-03-04T01:33:50;17;17;6
55043;PMS5003;54902;50.420;18.854;2023-03-04T01:34:21;17;17;6
55043;PMS5003;54902;50.420;18.854;2023-03-04T01:34:52;24;24;9
55043;PMS5003;54902;50.420;18.854;2023-03-04T01:35:23;16;16;7
55043;PMS5003;54902;50.420;18.854;2023-03-04T01:35:54;16;16;7
55043;PMS5003;54902;50.420;18.854;2023-03-04T01:36:27;16;16;7
55043;PMS5003;54902;50.420;18.854;2023-03-04T01:36:58;16;16;7
55043;PMS5003;54902;50.420;18.854;2023-03-04T01:37:29;16;16;7
55043;PMS5003;54902;50.420;18.854;2023-03-04T01:38:00;16;16;7
55043;PMS5003;54902;50.420;18.854;2023-03-04T01:38:30;16;16;7
55043;PMS5003;54902;50.420;18.854;2023-03-04T01:39:02;16;16;7
55043;PMS5003;54902;50.420;18.854;2023-03-04T01:39:33;16;16;7
55043;PMS5003;54902;50.420;18.854;2023-03-04T01:40:05;27;27;13
55043;PMS5003;54902;50.420;18.854;2023-03-04T01:40:36;27;27;13
55043;PMS5003;54902;50.420;18.854;2023-03-04T01:41:08;27;27;13
55043;PMS5003;54902;50.420;18.854;2023-03-04T01:41:40;27;27;13
55043;PMS5003;54902;50.420;18.854;2023-03-04T01:42:52;27;27;13
55043;PMS5003;54902;50.420;18.854;2023-03-04T01:43:24;27;27;13
55043;PMS5003;54902;50.420;18.854;2023-03-04T01:43:57;27;27;13
55043;PMS5003;54902;50.420;18.854;2023-03-04T01:44:32;27;27;13
55043;PMS5003;54902;50.420;18.854;2023-03-04T01:45:03;27;27;13
55043;PMS5003;54902;50.420;18.854;2023-03-04T01:45:35;27;27;13
55043;PMS5003;54902;50.420;18.854;2023-03-04T01:46:08;27;27;13
55043;PMS5003;54902;50.420;18.854;2023-03-04T01:46:46;27;27;13
55043;PMS5003;54902;50.420;18.854;2023-03-04T01:47:20;27;27;13
55043;PMS5003;54902;50.420;18.854;2023-03-04T01:47:53;27;27;13
55043;PMS5003;54902;50.420;18.854;2023-03-04T01:48:25;27;27;13
55043;PMS5003;54902;50.420;18.854;2023-03-04T01:49:00;27;27;13
55043;PMS5003;54902;50.420;18.854;2023-03-04T01:49:32;27;27;13
55043;PMS5003;54902;50.420;18.854;2023-03-04T01:50:04;27;27;13
55043;PMS5003;54902;50.420;18.854;2023-03-04T01:50:41;27;27;13
55043;PMS5003;54902;50.420;18.854;2023-03-04T01:51:13;27;27;13
55043;PMS5003;54902;50.420;18.854;2023-03-04T01:51:51;27;27;13
55043;PMS5003;54902;50.420;18.854;2023-03-04T01:52:23;16;16;8
55043;PMS5003;54902;50.420;18.854;2023-03-04T01:52:56;16;16;8
55043;PMS5003;54902;50.420;18.854;2023-03-04T01:53:28;16;16;8
55043;PMS5003;54902;50.420;18.854;2023-03-04T01:54:00;16;16;8
55043;PMS5003;54902;50.420;18.854;2023-03-04T01:54:31;16;16;8
55043;PMS5003;54902;50.420;18.854;2023-03-04T01:55:05;16;16;8
55043;PMS5003;54902;50.420;18.854;2023-03-04T01:55:41;16;16;8
55043;PMS5003;54902;50.420;18.854;2023-03-04T01:56:18;16;16;8
55043;PMS5003;54902;50.420;18.854;2023-03-04T01:56:54;31;28;14
55043;PMS5003;54902;50.420;18.854;2023-03-04T01:57:33;31;28;14
55043;PMS5003;54902;50.420;18.854;2023-03-04T01:58:08;31;28;14
55043;PMS5003;54902;50.420;18.854;2023-03-04T01:58:40;31;28;14
55043;PMS5003;54902;50.420;18.854;2023-03-04T01:59:16;27;24;12
55043;PMS5003;54902;50.420;18.854;2023-03-04T02:00:34;27;24;12
55043;PMS5003;54902;50.420;18.854;2023-03-04T02:01:06;27;24;12
55043;PMS5003;54902;50.420;18.854;2023-03-04T02:01:40;27;24;12
55043;PMS5003;54902;50.420;18.854;2023-03-04T02:02:17;27;24;12
55043;PMS5003;54902;50.420;18.854;2023-03-04T02:02:57;33;32;16
55043;PMS5003;54902;50.420;18.854;2023-03-04T02:03:29;33;32;16
55043;PMS5003;54902;50.420;18.854;2023-03-04T02:04:00;33;32;16
55043;PMS5003;54902;50.420;18.854;2023-03-04T02:04:31;33;32;16
55043;PMS5003;54902;50.420;18.854;2023-03-04T02:05:03;25;24;12
55043;PMS5003;54902;50.420;18.854;2023-03-04T02:05:35;25;24;12
55043;PMS5003;54902;50.420;18.854;2023-03-04T02:06:07;25;24;12
55043;PMS5003;54902;50.420;18.854;2023-03-04T02:06:39;25;24;12
55043;PMS5003;54902;50.420;18.854;2023-03-04T02:07:11;25;24;12
55043;PMS5003;54902;50.420;18.854;2023-03-04T02:07:42;25;24;12
55043;PMS5003;54902;50.420;18.854;2023-03-04T02:08:13;30;27;14
55043;PMS5003;54902;50.420;18.854;2023-03-04T02:08:47;30;27;14
55043;PMS5003;54902;50.420;18.854;2023-03-04T02:09:18;30;27;14
55043;PMS5003;54902;50.420;18.854;2023-03-04T02:09:50;30;27;14
55043;PMS5003;54902;50.420;18.854;2023-03-04T02:10:21;30;27;14
55043;PMS5003;54902;50.420;18.854;2023-03-04T02:10:53;30;27;14
55043;PMS5003;54902;50.420;18.854;2023-03-04T02:11:24;30;27;14
55043;PMS5003;54902;50.420;18.854;2023-03-04T02:11:56;30;27;14
55043;PMS5003;54902;50.420;18.854;2023-03-04T02:12:27;30;27;14
55043;PMS5003;54902;50.420;18.854;2023-03-04T02:12:59;30;27;14
55043;PMS5003;54902;50.420;18.854;2023-03-04T02:13:30;34;31;16
55043;PMS5003;54902;50.420;18.854;2023-03-04T02:14:04;34;31;16
55043;PMS5003;54902;50.420;18.854;2023-03-04T02:14:37;34;31;16
55043;PMS5003;54902;50.420;18.854;2023-03-04T02:15:09;34;31;16
55043;PMS5003;54902;50.420;18.854;2023-03-04T02:15:41;34;31;16
55043;PMS5003;54902;50.420;18.854;2023-03-04T02:16:13;34;31;16
55043;PMS5003;54902;50.420;18.854;2023-03-04T02:16:44;34;31;16
55043;PMS5003;54902;50.420;18.854;2023-03-04T02:17:16;34;31;16
55043;PMS5003;54902;50.420;18.854;2023-03-04T02:17:47;34;31;16
55043;PMS5003;54902;50.420;18.854;2023-03-04T02:18:19;34;31;16
55043;PMS5003;54902;50.420;18.854;2023-03-04T02:18:52;34;31;16
55043;PMS5003;54902;50.420;18.854;2023-03-04T02:21:36;34;31;16
55043;PMS5003;54902;50.420;18.854;2023-03-04T02:22:07;34;31;16
55043;PMS5003;54902;50.420;18.854;2023-03-04T02:22:39;34;31;16
55043;PMS5003;54902;50.420;18.854;2023-03-04T02:23:22;34;31;16
55043;PMS5003;54902;50.420;18.854;2023-03-04T02:24:10;31;29;14
55043;PMS5003;54902;50.420;18.854;2023-03-04T02:24:46;21;20;10
55043;PMS5003;54902;50.420;18.854;2023-03-04T02:25:26;33;26;13
55043;PMS5003;54902;50.420;18.854;2023-03-04T02:26:48;33;26;13
55043;PMS5003;54902;50.420;18.854;2023-03-04T02:27:19;33;26;13
55043;PMS5003;54902;50.420;18.854;2023-03-04T02:27:49;33;26;13
55043;PMS5003;54902;50.420;18.854;2023-03-04T02:28:20;33;26;13
55043;PMS5003;54902;50.420;18.854;2023-03-04T02:28:52;33;26;13
55043;PMS5003;54902;50.420;18.854;2023-03-04T02:29:25;35;29;15
55043;PMS5003;54902;50.420;18.854;2023-03-04T02:29:58;35;29;15
55043;PMS5003;54902;50.420;18.854;2023-03-04T02:30:29;35;29;15
55043;PMS5003;54902;50.420;18.854;2023-03-04T02:31:00;31;28;14
55043;PMS5003;54902;50.420;18.854;2023-03-04T02:31:35;31;28;14
55043;PMS5003;54902;50.420;18.854;2023-03-04T02:32:09;25;24;13
55043;PMS5003;54902;50.420;18.854;2023-03-04T02:32:42;25;24;13
55043;PMS5003;54902;50.420;18.854;2023-03-04T02:33:13;25;24;13
55043;PMS5003;54902;50.420;18.854;2023-03-04T02:33:47;25;24;13
55043;PMS5003;54902;50.420;18.854;2023-03-04T02:34:59;34;34;18
55043;PMS5003;54902;50.420;18.854;2023-03-04T02:35:30;34;34;18
55043;PMS5003;54902;50.420;18.854;2023-03-04T02:36:02;34;34;18
55043;PMS5003;54902;50.420;18.854;2023-03-04T02:36:33;35;34;16
55043;PMS5003;54902;50.420;18.854;2023-03-04T02:37:05;35;34;16
55043;PMS5003;54902;50.420;18.854;2023-03-04T02:37:36;35;34;16
55043;PMS5003;54902;50.420;18.854;2023-03-04T02:38:08;35;34;16
55043;PMS5003;54902;50.420;18.854;2023-03-04T02:38:40;34;32;18
55043;PMS5003;54902;50.420;18.854;2023-03-04T02:39:54;34;30;17
55043;PMS5003;54902;50.420;18.854;2023-03-04T02:40:29;34;30;17
55043;PMS5003;54902;50.420;18.854;2023-03-04T02:41:02;34;30;17
55043;PMS5003;54902;50.420;18.854;2023-03-04T02:41:36;34;30;17
55043;PMS5003;54902;50.420;18.854;2023-03-04T02:42:07;34;32;14
55043;PMS5003;54902;50.420;18.854;2023-03-04T02:42:41;34;32;14
55043;PMS5003;54902;50.420;18.854;2023-03-04T02:43:14;34;32;14
55043;PMS5003;54902;50.420;18.854;2023-03-04T02:43:46;34;32;14
55043;PMS5003;54902;50.420;18.854;2023-03-04T02:44:22;34;32;14
55043;PMS5003;54902;50.420;18.854;2023-03-04T02:44:58;34;32;14
55043;PMS5003;54902;50.420;18.854;2023-03-04T02:46:10;33;30;14
55043;PMS5003;54902;50.420;18.854;2023-03-04T02:46:42;33;30;14
55043;PMS5003;54902;50.420;18.854;2023-03-04T02:47:15;33;30;14
55043;PMS5003;54902;50.420;18.854;2023-03-04T02:47:47;35;29;13
55043;PMS5003;54902;50.420;18.854;2023-03-04T02:48:19;35;29;13
55043;PMS5003;54902;50.420;18.854;2023-03-04T02:48:51;35;29;13
55043;PMS5003;54902;50.420;18.854;2023-03-04T02:49:23;35;29;13
55043;PMS5003;54902;50.420;18.854;2023-03-04T02:49:56;35;29;13
55043;PMS5003;54902;50.420;18.854;2023-03-04T02:50:27;35;29;13
55043;PMS5003;54902;50.420;18.854;2023-03-04T02:51:01;35;29;13
55043;PMS5003;54902;50.420;18.854;2023-03-04T02:51:32;35;29;13
55043;PMS5003;54902;50.420;18.854;2023-03-04T02:52:43;35;29;13
55043;PMS5003;54902;50.420;18.854;2023-03-04T02:53:14;42;34;16
55043;PMS5003;54902;50.420;18.854;2023-03-04T02:53:46;42;34;16
55043;PMS5003;54902;50.420;18.854;2023-03-04T02:54:17;42;34;16
55043;PMS5003;54902;50.420;18.854;2023-03-04T02:54:51;42;34;16
55043;PMS5003;54902;50.420;18.854;2023-03-04T02:55:22;42;34;16
55043;PMS5003;54902;50.420;18.854;2023-03-04T02:55:53;42;34;16
55043;PMS5003;54902;50.420;18.854;2023-03-04T02:56:24;42;34;16
55043;PMS5003;54902;50.420;18.854;2023-03-04T02:56:56;42;34;16
55043;PMS5003;54902;50.420;18.854;2023-03-04T02:57:29;42;34;16
55043;PMS5003;54902;50.420;18.854;2023-03-04T02:58:00;42;34;16
55043;PMS5003;54902;50.420;18.854;2023-03-04T02:58:31;42;34;16
55043;PMS5003;54902;50.420;18.854;2023-03-04T02:59:02;42;34;16
55043;PMS5003;54902;50.420;18.854;2023-03-04T02:59:33;42;34;16
55043;PMS5003;54902;50.420;18.854;2023-03-04T03:00:06;42;34;16
55043;PMS5003;54902;50.420;18.854;2023-03-04T03:00:38;32;27;13
55043;PMS5003;54902;50.420;18.854;2023-03-04T03:01:09;32;27;13
55043;PMS5003;54902;50.420;18.854;2023-03-04T03:01:40;32;27;13
55043;PMS5003;54902;50.420;18.854;2023-03-04T03:02:12;32;27;13
55043;PMS5003;54902;50.420;18.854;2023-03-04T03:02:43;32;27;13
55043;PMS5003;54902;50.420;18.854;2023-03-04T03:03:13;32;27;13
55043;PMS5003;54902;50.420;18.854;2023-03-04T03:03:44;36;32;16
55043;PMS5003;54902;50.420;18.854;2023-03-04T03:04:15;36;32;16
55043;PMS5003;54902;50.420;18.854;2023-03-04T03:04:47;36;32;16
55043;PMS5003;54902;50.420;18.854;2023-03-04T03:05:18;36;32;16
55043;PMS5003;54902;50.420;18.854;2023-03-04T03:05:50;36;32;16
55043;PMS5003;54902;50.420;18.854;2023-03-04T03:06:21;36;32;16
55043;PMS5003;54902;50.420;18.854;2023-03-04T03:06:52;36;32;16
55043;PMS5003;54902;50.420;18.854;2023-03-04T03:07:23;36;32;16
55043;PMS5003;54902;50.420;18.854;2023-03-04T03:07:53;36;32;16
55043;PMS5003;54902;50.420;18.854;2023-03-04T03:08:25;36;32;16
55043;PMS5003;54902;50.420;18.854;2023-03-04T03:08:56;40;36;18
55043;PMS5003;54902;50.420;18.854;2023-03-04T03:09:27;40;36;18
55043;PMS5003;54902;50.420;18.854;2023-03-04T03:09:58;40;36;18
55043;PMS5003;54902;50.420;18.854;2023-03-04T03:10:29;40;36;18
55043;PMS5003;54902;50.420;18.854;2023-03-04T03:11:00;40;36;18
55043;PMS5003;54902;50.420;18.854;2023-03-04T03:11:31;40;36;18
55043;PMS5003;54902;50.420;18.854;2023-03-04T03:12:03;28;26;13
55043;PMS5003;54902;50.420;18.854;2023-03-04T03:12:34;28;26;13
55043;PMS5003;54902;50.420;18.854;2023-03-04T03:13:05;28;26;13
55043;PMS5003;54902;50.420;18.854;2023-03-04T03:13:36;28;26;13
55043;PMS5003;54902;50.420;18.854;2023-03-04T03:14:07;15;14;8
55043;PMS5003;54902;50.420;18.854;2023-03-04T03:14:38;15;14;8
55043;PMS5003;54902;50.420;18.854;2023-03-04T03:15:09;15;14;8
55043;PMS5003;54902;50.420;18.854;2023-03-04T03:15:40;15;14;8
55043;PMS5003;54902;50.420;18.854;2023-03-04T03:16:11;15;14;8
55043;PMS5003;54902;50.420;18.854;2023-03-04T03:16:42;15;14;8
55043;PMS5003;54902;50.420;18.854;2023-03-04T03:17:13;15;14;8
55043;PMS5003;54902;50.420;18.854;2023-03-04T03:17:44;15;14;8
55043;PMS5003;54902;50.420;18.854;2023-03-04T03:18:16;15;14;8
55043;PMS5003;54902;50.420;18.854;2023-03-04T03:18:47;15;14;8
55043;PMS5003;54902;50.420;18.854;2023-03-04T03:19:17;18;18;10
55043;PMS5003;54902;50.420;18.854;2023-03-04T03:19:48;18;18;10
55043;PMS5003;54902;50.420;18.854;2023-03-04T03:20:19;18;18;10
55043;PMS5003;54902;50.420;18.854;2023-03-04T03:20:50;18;18;10
55043;PMS5003;54902;50.420;18.854;2023-03-04T03:21:21;18;18;10
55043;PMS5003;54902;50.420;18.854;2023-03-04T03:21:52;18;18;10
55043;PMS5003;54902;50.420;18.854;2023-03-04T03:22:23;16;16;9
55043;PMS5003;54902;50.420;18.854;2023-03-04T03:22:54;16;16;9
55043;PMS5003;54902;50.420;18.854;2023-03-04T03:23:25;16;16;9
55043;PMS5003;54902;50.420;18.854;2023-03-04T03:23:56;16;16;9
55043;PMS5003;54902;50.420;18.854;2023-03-04T03:24:27;22;21;11
55043;PMS5003;54902;50.420;18.854;2023-03-04T03:24:58;22;21;11
55043;PMS5003;54902;50.420;18.854;2023-03-04T03:25:29;22;21;11
55043;PMS5003;54902;50.420;18.854;2023-03-04T03:26:00;22;21;11
55043;PMS5003;54902;50.420;18.854;2023-03-04T03:26:31;22;21;11
55043;PMS5003;54902;50.420;18.854;2023-03-04T03:27:02;22;21;11
55043;PMS5003;54902;50.420;18.854;2023-03-04T03:27:33;22;21;11
55043;PMS5003;54902;50.420;18.854;2023-03-04T03:28:04;22;21;11